createdAt,value
2019-04-14T00:00:57.615Z,0.00
2019-04-14T00:01:58.582Z,0.00
2019-04-14T00:02:57.769Z,0.00
2019-04-14T00:03:58.691Z,0.00
2019-04-14T00:04:57.517Z,0.00
2019-04-14T00:05:58.311Z,0.00
2019-04-14T00:06:57.495Z,0.00
2019-04-14T00:07:58.100Z,0.00
2019-04-14T00:08:58.542Z,0.00
2019-04-14T00:09:58.478Z,0.00
2019-04-14T00:10:57.455Z,0.00
2019-04-14T00:11:57.437Z,0.00
2019-04-14T00:12:57.751Z,0.00
2019-04-14T00:13:57.431Z,0.00
2019-04-14T00:14:57.603Z,0.00
2019-04-14T00:15:57.394Z,0.00
2019-04-14T00:16:57.521Z,0.00
2019-04-14T00:17:57.368Z,0.00
2019-04-14T00:18:57.686Z,0.00
2019-04-14T00:19:57.346Z,0.00
2019-04-14T00:20:57.725Z,0.00
2019-04-14T00:21:57.322Z,0.00
2019-04-14T00:22:57.617Z,0.00
2019-04-14T00:23:57.299Z,0.00
2019-04-14T00:24:57.528Z,0.00
2019-04-14T00:25:57.273Z,0.00
2019-04-14T00:26:57.361Z,0.00
2019-04-14T00:27:57.252Z,0.00
2019-04-14T00:28:57.931Z,0.00
2019-04-14T00:29:57.247Z,0.00
2019-04-14T00:30:57.680Z,0.00
2019-04-14T00:31:57.212Z,0.00
2019-04-14T00:32:57.465Z,0.00
2019-04-14T00:33:58.485Z,0.00
2019-04-14T00:34:57.233Z,0.00
2019-04-14T00:35:58.072Z,0.00
2019-04-14T00:36:57.150Z,0.00
2019-04-14T00:37:59.229Z,0.00
2019-04-14T00:38:57.124Z,0.00
2019-04-14T00:39:57.572Z,0.00
2019-04-14T00:40:58.229Z,0.00
2019-04-14T00:42:01.378Z,0.00
2019-04-14T00:42:58.214Z,0.00
2019-04-14T00:43:57.067Z,0.00
2019-04-14T00:44:58.058Z,0.00
2019-04-14T00:46:00.556Z,0.00
2019-04-14T00:46:58.127Z,0.00
2019-04-14T00:48:03.427Z,0.00
2019-04-14T00:48:58.210Z,0.00
2019-04-14T00:49:57.280Z,0.00
2019-04-14T00:50:58.043Z,0.00
2019-04-14T00:51:57.119Z,0.00
2019-04-14T00:52:56.963Z,0.00
2019-04-14T00:53:57.953Z,0.00
2019-04-14T00:54:56.942Z,0.00
2019-04-14T00:55:57.601Z,0.00
2019-04-14T00:56:56.940Z,0.00
2019-04-14T00:57:57.294Z,0.00
2019-04-14T00:58:58.165Z,0.00
2019-04-14T00:59:57.313Z,0.00
2019-04-14T01:00:57.794Z,0.00
2019-04-14T01:01:56.987Z,0.00
2019-04-14T01:02:57.896Z,0.00
2019-04-14T01:03:57.049Z,0.00
2019-04-14T01:04:57.699Z,0.00
2019-04-14T01:05:56.941Z,0.00
2019-04-14T01:06:57.665Z,0.00
2019-04-14T01:07:56.788Z,0.00
2019-04-14T01:08:57.560Z,0.00
2019-04-14T01:09:57.545Z,0.00
2019-04-14T01:10:56.753Z,0.00
2019-04-14T01:11:57.432Z,0.00
2019-04-14T01:12:56.749Z,0.00
2019-04-14T01:13:57.189Z,0.00
2019-04-14T01:14:56.708Z,0.00
2019-04-14T01:16:03.742Z,0.00
2019-04-14T01:16:58.008Z,0.00
2019-04-14T01:17:57.147Z,0.00
2019-04-14T01:18:57.961Z,0.00
2019-04-14T01:19:57.039Z,0.00
2019-04-14T01:20:57.762Z,0.00
2019-04-14T01:21:56.748Z,0.00
2019-04-14T01:22:57.470Z,0.00
2019-04-14T01:23:56.672Z,0.00
2019-04-14T01:24:57.564Z,0.00
2019-04-14T01:25:56.580Z,0.00
2019-04-14T01:26:57.106Z,0.00
2019-04-14T01:27:56.560Z,0.00
2019-04-14T01:28:56.848Z,0.00
2019-04-14T01:29:56.534Z,0.00
2019-04-14T01:30:56.661Z,0.00
2019-04-14T01:31:56.531Z,0.00
2019-04-14T01:32:56.566Z,0.00
2019-04-14T01:33:57.554Z,0.00
2019-04-14T01:34:57.015Z,0.00
2019-04-14T01:35:57.403Z,0.00
2019-04-14T01:36:56.493Z,0.00
2019-04-14T01:37:57.257Z,0.00
2019-04-14T01:38:56.432Z,0.00
2019-04-14T01:39:56.714Z,0.00
2019-04-14T01:40:57.677Z,0.00
2019-04-14T01:41:56.535Z,0.00
2019-04-14T01:42:57.313Z,0.00
2019-04-14T01:43:56.373Z,0.00
2019-04-14T01:44:57.075Z,0.00
2019-04-14T01:46:05.164Z,0.00
2019-04-14T01:46:57.333Z,0.00
2019-04-14T01:47:57.545Z,0.00
2019-04-14T01:48:56.438Z,0.00
2019-04-14T01:49:57.362Z,0.00
2019-04-14T01:50:56.291Z,0.00
2019-04-14T01:51:57.132Z,0.00
2019-04-14T01:52:56.782Z,0.00
2019-04-14T01:53:57.391Z,0.00
2019-04-14T01:54:56.245Z,0.00
2019-04-14T01:55:56.992Z,0.00
2019-04-14T01:56:56.219Z,0.00
2019-04-14T01:57:56.852Z,0.00
2019-04-14T01:58:56.199Z,0.00
2019-04-14T01:59:56.758Z,0.00
2019-04-14T02:00:56.173Z,0.00
2019-04-14T02:01:56.532Z,0.00
2019-04-14T02:02:56.171Z,0.00
2019-04-14T02:03:56.344Z,0.00
2019-04-14T02:04:56.128Z,0.00
2019-04-14T02:05:56.183Z,0.00
2019-04-14T02:06:57.275Z,0.00
2019-04-14T02:07:56.118Z,0.00
2019-04-14T02:08:56.821Z,0.00
2019-04-14T02:09:56.070Z,0.00
2019-04-14T02:10:56.551Z,0.00
2019-04-14T02:11:57.216Z,0.00
2019-04-14T02:12:56.407Z,0.00
2019-04-14T02:13:57.203Z,0.00
2019-04-14T02:14:56.321Z,0.00
2019-04-14T02:15:57.270Z,0.00
2019-04-14T02:16:59.519Z,0.00
2019-04-14T02:17:56.978Z,0.00
2019-04-14T02:18:56.921Z,0.00
2019-04-14T02:19:56.776Z,0.00
2019-04-14T02:20:55.957Z,0.00
2019-04-14T02:21:56.382Z,0.00
2019-04-14T02:22:57.271Z,0.00
2019-04-14T02:23:56.156Z,0.00
2019-04-14T02:24:57.002Z,0.00
2019-04-14T02:25:55.886Z,0.00
2019-04-14T02:26:57.000Z,0.00
2019-04-14T02:27:55.923Z,0.00
2019-04-14T02:28:57.067Z,0.00
2019-04-14T02:29:55.979Z,0.00
2019-04-14T02:31:06.358Z,0.00
2019-04-14T02:32:30.193Z,0.00
2019-04-14T02:33:26.427Z,0.00
2019-04-14T02:34:28.369Z,0.00
2019-04-14T02:36:41.855Z,0.00
2019-04-14T02:38:33.959Z,0.00
2019-04-14T02:39:38.915Z,0.00
2019-04-14T02:40:34.307Z,0.00
2019-04-14T02:41:28.435Z,0.00
2019-04-14T02:45:28.161Z,0.00
2019-04-14T02:46:20.138Z,0.00
2019-04-14T02:49:27.427Z,0.00
2019-04-14T02:50:26.309Z,0.00
2019-04-14T02:51:34.954Z,0.00
2019-04-14T02:52:31.810Z,0.00
2019-04-14T02:53:23.739Z,0.00
2019-04-14T02:54:27.483Z,0.00
2019-04-14T02:55:15.338Z,0.00
2019-04-14T02:56:21.770Z,0.00
2019-04-14T02:57:26.909Z,0.00
2019-04-14T02:58:26.671Z,0.00
2019-04-14T02:59:25.037Z,0.00
2019-04-14T03:00:24.605Z,0.00
2019-04-14T03:02:30.677Z,0.00
2019-04-14T03:04:21.550Z,0.00
2019-04-14T03:05:21.837Z,0.00
2019-04-14T03:06:18.478Z,0.00
2019-04-14T03:07:34.211Z,0.00
2019-04-14T03:08:25.688Z,0.00
2019-04-14T03:09:30.163Z,0.00
2019-04-14T03:10:29.917Z,0.00
2019-04-14T03:11:25.759Z,0.00
2019-04-14T03:12:24.882Z,0.00
2019-04-14T03:13:23.043Z,0.00
2019-04-14T03:14:27.825Z,0.00
2019-04-14T03:15:26.694Z,0.00
2019-04-14T03:16:31.293Z,0.00
2019-04-14T03:17:36.845Z,0.00
2019-04-14T03:18:33.879Z,0.00
2019-04-14T03:19:27.497Z,0.00
2019-04-14T03:20:32.206Z,0.00
2019-04-14T03:21:37.265Z,0.00
2019-04-14T03:23:23.898Z,0.00
2019-04-14T03:24:29.086Z,0.00
2019-04-14T03:25:13.167Z,0.00
2019-04-14T03:26:18.254Z,0.00
2019-04-14T03:27:22.840Z,0.00
2019-04-14T03:28:19.499Z,0.00
2019-04-14T03:29:21.710Z,0.00
2019-04-14T03:30:46.003Z,0.00
2019-04-14T03:31:49.695Z,0.00
2019-04-14T03:32:36.048Z,0.00
2019-04-14T03:34:34.624Z,0.00
2019-04-14T03:37:04.789Z,0.00
2019-04-14T03:37:46.849Z,0.00
2019-04-14T03:38:29.802Z,0.00
2019-04-14T03:39:27.416Z,0.00
2019-04-14T03:40:25.645Z,0.00
2019-04-14T03:41:25.603Z,0.00
2019-04-14T03:42:29.260Z,0.00
2019-04-14T03:45:28.211Z,0.00
2019-04-14T03:46:27.782Z,0.00
2019-04-14T03:47:31.089Z,0.00
2019-04-14T03:48:45.065Z,0.00
2019-04-14T03:49:26.323Z,0.00
2019-04-14T03:50:23.152Z,0.00
2019-04-14T03:51:26.359Z,0.00
2019-04-14T03:52:22.176Z,0.00
2019-04-14T03:54:17.151Z,0.00
2019-04-14T03:55:13.893Z,0.00
2019-04-14T03:56:01.923Z,0.00
2019-04-14T03:56:55.924Z,0.00
2019-04-14T03:57:54.822Z,0.00
2019-04-14T03:58:55.387Z,0.00
2019-04-14T03:59:54.819Z,0.00
2019-04-14T04:00:55.364Z,0.00
2019-04-14T04:01:54.793Z,0.00
2019-04-14T04:02:55.469Z,0.00
2019-04-14T04:03:54.750Z,0.00
2019-04-14T04:04:55.528Z,0.00
2019-04-14T04:05:54.731Z,0.00
2019-04-14T04:06:55.343Z,0.00
2019-04-14T04:07:55.956Z,0.00
2019-04-14T04:08:55.250Z,4.00
2019-04-14T04:09:54.681Z,4.00
2019-04-14T04:10:55.425Z,0.00
2019-04-14T04:11:54.677Z,4.00
2019-04-14T04:12:55.384Z,4.00
2019-04-14T04:13:54.639Z,8.00
2019-04-14T04:14:55.278Z,4.00
2019-04-14T04:15:54.613Z,8.00
2019-04-14T04:16:55.093Z,8.00
2019-04-14T04:17:55.831Z,8.00
2019-04-14T04:19:03.704Z,12.00
2019-04-14T04:19:55.668Z,12.00
2019-04-14T04:20:54.561Z,16.00
2019-04-14T04:21:55.239Z,20.00
2019-04-14T04:22:54.563Z,20.00
2019-04-14T04:23:55.424Z,24.00
2019-04-14T04:24:54.511Z,28.00
2019-04-14T04:25:55.086Z,28.00
2019-04-14T04:26:54.504Z,32.00
2019-04-14T04:27:54.786Z,32.00
2019-04-14T04:28:54.462Z,36.00
2019-04-14T04:29:54.807Z,40.00
2019-04-14T04:30:54.437Z,48.00
2019-04-14T04:31:54.757Z,56.00
2019-04-14T04:32:54.417Z,56.00
2019-04-14T04:33:54.518Z,56.00
2019-04-14T04:34:55.559Z,68.00
2019-04-14T04:35:54.381Z,76.00
2019-04-14T04:36:55.306Z,72.00
2019-04-14T04:38:46.342Z,84.00
2019-04-14T04:39:45.952Z,84.00
2019-04-14T04:40:46.172Z,104.00
2019-04-14T04:41:47.166Z,104.00
2019-04-14T04:42:45.917Z,108.00
2019-04-14T04:43:45.909Z,124.00
2019-04-14T04:44:46.362Z,132.00
2019-04-14T04:45:45.884Z,124.00
2019-04-14T04:46:46.011Z,120.00
2019-04-14T04:47:46.910Z,168.00
2019-04-14T04:48:58.328Z,164.00
2019-04-14T04:49:46.965Z,200.00
2019-04-14T04:50:45.830Z,212.00
2019-04-14T04:51:46.557Z,212.00
2019-04-14T04:52:45.824Z,208.00
2019-04-14T04:53:46.222Z,216.00
2019-04-14T04:54:45.783Z,244.00
2019-04-14T04:55:46.129Z,256.00
2019-04-14T04:56:45.763Z,260.00
2019-04-14T04:57:46.058Z,268.00
2019-04-14T04:58:45.743Z,280.00
2019-04-14T04:59:45.727Z,292.00
2019-04-14T05:00:47.361Z,312.00
2019-04-14T05:01:45.715Z,320.00
2019-04-14T05:02:46.042Z,356.00
2019-04-14T05:03:45.690Z,344.00
2019-04-14T05:04:46.002Z,380.00
2019-04-14T05:05:45.662Z,424.00
2019-04-14T05:06:45.919Z,432.00
2019-04-14T05:07:46.877Z,456.00
2019-04-14T05:08:45.627Z,484.00
2019-04-14T05:09:46.856Z,604.00
2019-04-14T05:10:45.755Z,608.00
2019-04-14T05:11:46.872Z,584.00
2019-04-14T05:12:45.739Z,636.00
2019-04-14T05:13:46.732Z,608.00
2019-04-14T05:14:45.669Z,568.00
2019-04-14T05:15:46.570Z,628.00
2019-04-14T05:16:46.147Z,696.00
2019-04-14T05:17:45.555Z,676.00
2019-04-14T05:18:46.302Z,676.00
2019-04-14T05:19:45.573Z,712.00
2019-04-14T05:20:46.426Z,784.00
2019-04-14T05:21:45.475Z,840.00
2019-04-14T05:22:46.184Z,832.00
2019-04-14T05:23:45.455Z,868.00
2019-04-14T05:24:46.132Z,940.00
2019-04-14T05:25:45.431Z,928.00
2019-04-14T05:26:46.006Z,936.00
2019-04-14T05:27:45.436Z,1012.00
2019-04-14T05:28:46.009Z,988.00
2019-04-14T05:29:45.382Z,1072.00
2019-04-14T05:30:45.814Z,1124.00
2019-04-14T05:31:45.365Z,1184.00
2019-04-14T05:32:45.557Z,1148.00
2019-04-14T05:33:45.356Z,1184.00
2019-04-14T05:34:45.452Z,1180.00
2019-04-14T05:35:46.446Z,1204.00
2019-04-14T05:36:45.422Z,1348.00
2019-04-14T05:37:46.402Z,1468.00
2019-04-14T05:38:45.301Z,1556.00
2019-04-14T05:39:46.138Z,1612.00
2019-04-14T05:40:45.258Z,1532.00
2019-04-14T05:41:57.065Z,1460.00
2019-04-14T05:42:47.325Z,1640.00
2019-04-14T05:43:51.646Z,1868.00
2019-04-14T05:44:47.127Z,1984.00
2019-04-14T05:45:45.822Z,1772.00
2019-04-14T05:46:45.194Z,1628.00
2019-04-14T05:47:45.770Z,1788.00
2019-04-14T05:48:45.167Z,1928.00
2019-04-14T05:49:49.479Z,1828.00
2019-04-14T05:50:46.872Z,2132.00
2019-04-14T05:51:45.912Z,2044.00
2019-04-14T05:52:45.138Z,2176.00
2019-04-14T05:53:45.839Z,2804.00
2019-04-14T05:54:45.115Z,2564.00
2019-04-14T05:55:46.011Z,2628.00
2019-04-14T05:56:45.078Z,2884.00
2019-04-14T05:57:45.967Z,2600.00
2019-04-14T05:58:45.068Z,2532.00
2019-04-14T05:59:46.122Z,2740.00
2019-04-14T06:00:46.276Z,3016.00
2019-04-14T06:01:45.018Z,3188.00
2019-04-14T06:02:46.232Z,3152.00
2019-04-14T06:03:45.408Z,3176.00
2019-04-14T06:04:46.035Z,3304.00
2019-04-14T06:05:45.105Z,3912.00
2019-04-14T06:06:44.969Z,4032.00
2019-04-14T06:07:45.002Z,4072.00
2019-04-14T06:08:44.939Z,4096.00
2019-04-14T06:09:44.944Z,4004.00
2019-04-14T06:10:44.918Z,4460.00
2019-04-14T06:11:44.907Z,4652.00
2019-04-14T06:12:44.894Z,4532.00
2019-04-14T06:13:44.879Z,4576.00
2019-04-14T06:14:44.890Z,4368.00
2019-04-14T06:15:44.859Z,4196.00
2019-04-14T06:16:44.848Z,4468.00
2019-04-14T06:17:44.834Z,4200.00
2019-04-14T06:18:44.823Z,4308.00
2019-04-14T06:19:44.852Z,4576.00
2019-04-14T06:20:44.802Z,4152.00
2019-04-14T06:21:44.790Z,4344.00
2019-04-14T06:22:44.777Z,4916.00
2019-04-14T06:23:44.772Z,5196.00
2019-04-14T06:24:44.755Z,5744.00
2019-04-14T06:25:44.766Z,5464.00
2019-04-14T06:26:44.731Z,5504.00
2019-04-14T06:27:44.732Z,5680.00
2019-04-14T06:28:44.714Z,6304.00
2019-04-14T06:29:44.699Z,6992.00
2019-04-14T06:30:44.708Z,6960.00
2019-04-14T06:31:44.677Z,7256.00
2019-04-14T06:32:44.665Z,7288.00
2019-04-14T06:33:44.654Z,7376.00
2019-04-14T06:34:44.692Z,7068.00
2019-04-14T06:35:44.656Z,6516.00
2019-04-14T06:36:44.621Z,6096.00
2019-04-14T06:37:44.612Z,6500.00
2019-04-14T06:38:44.598Z,6176.00
2019-04-14T06:39:44.585Z,6852.00
2019-04-14T06:40:44.576Z,8200.00
2019-04-14T06:41:44.585Z,9180.00
2019-04-14T06:42:44.554Z,9768.00
2019-04-14T06:43:49.039Z,9204.00
2019-04-14T06:44:44.543Z,9564.00
2019-04-14T06:45:44.544Z,9580.00
2019-04-14T06:46:44.511Z,11852.00
2019-04-14T06:47:44.500Z,11408.00
2019-04-14T06:48:44.484Z,11568.00
2019-04-14T06:49:49.194Z,14940.00
2019-04-14T06:50:46.577Z,17216.00
2019-04-14T06:51:44.450Z,15028.00
2019-04-14T06:52:44.439Z,17664.00
2019-04-14T06:53:44.436Z,13608.00
2019-04-14T06:54:44.412Z,11728.00
2019-04-14T06:55:44.403Z,11672.00
2019-04-14T06:56:44.417Z,11944.00
2019-04-14T06:57:44.379Z,11076.00
2019-04-14T06:58:44.370Z,9896.00
2019-04-14T06:59:44.358Z,9972.00
2019-04-14T07:00:44.346Z,13436.00
2019-04-14T07:01:44.351Z,13404.00
2019-04-14T07:02:45.507Z,13152.00
2019-04-14T07:03:44.310Z,21760.00
2019-04-14T07:04:44.296Z,15712.00
2019-04-14T07:05:44.289Z,15108.00
2019-04-14T07:06:44.314Z,13728.00
2019-04-14T07:07:56.191Z,13320.00
2019-04-14T07:08:45.250Z,13912.00
2019-04-14T07:09:44.244Z,12664.00
2019-04-14T07:10:44.234Z,13556.00
2019-04-14T07:11:44.218Z,17280.00
2019-04-14T07:12:44.227Z,14664.00
2019-04-14T07:13:47.948Z,12296.00
2019-04-14T07:14:44.183Z,12848.00
2019-04-14T07:15:44.174Z,13408.00
2019-04-14T07:16:44.159Z,14016.00
2019-04-14T07:17:44.253Z,17376.00
2019-04-14T07:18:44.152Z,17216.00
2019-04-14T07:19:44.126Z,16636.00
2019-04-14T07:20:44.117Z,15364.00
2019-04-14T07:21:44.107Z,17824.00
2019-04-14T07:22:44.111Z,19104.00
2019-04-14T07:23:44.080Z,35776.00
2019-04-14T07:24:44.069Z,19776.00
2019-04-14T07:25:44.058Z,17760.00
2019-04-14T07:26:44.046Z,21856.00
2019-04-14T07:27:44.077Z,47296.00
2019-04-14T07:28:55.952Z,28352.00
2019-04-14T07:29:45.015Z,32288.00
2019-04-14T07:30:44.005Z,34784.00
2019-04-14T07:31:43.990Z,43744.00
2019-04-14T07:32:43.978Z,41248.00
2019-04-14T07:33:43.985Z,40512.00
2019-04-14T07:34:43.958Z,35584.00
2019-04-14T07:35:43.943Z,39040.00
2019-04-14T07:36:43.935Z,39520.00
2019-04-14T07:37:43.920Z,39264.00
2019-04-14T07:38:43.926Z,25184.00
2019-04-14T07:39:43.897Z,33632.00
2019-04-14T07:40:43.885Z,38848.00
2019-04-14T07:41:43.878Z,19008.00
2019-04-14T07:42:43.862Z,17016.00
2019-04-14T07:43:43.881Z,22656.00
2019-04-14T07:44:43.839Z,22240.00
2019-04-14T07:45:43.826Z,21280.00
2019-04-14T07:46:43.819Z,21344.00
2019-04-14T07:47:43.806Z,25408.00
2019-04-14T07:48:43.810Z,20352.00
2019-04-14T07:49:43.781Z,20320.00
2019-04-14T07:50:43.767Z,40352.00
2019-04-14T07:51:43.758Z,41088.00
2019-04-14T07:52:43.748Z,42176.00
2019-04-14T07:53:43.756Z,39712.00
2019-04-14T07:54:43.723Z,27552.00
2019-04-14T07:55:43.710Z,30816.00
2019-04-14T07:56:43.700Z,26752.00
2019-04-14T07:57:43.692Z,34528.00
2019-04-14T07:58:43.693Z,43936.00
2019-04-14T07:59:43.683Z,44096.00
2019-04-14T08:00:43.650Z,43168.00
2019-04-14T08:01:43.641Z,43136.00
2019-04-14T08:02:43.631Z,43200.00
2019-04-14T08:03:43.620Z,43104.00
2019-04-14T08:04:43.625Z,42656.00
2019-04-14T08:05:43.597Z,41280.00
2019-04-14T08:06:43.581Z,31648.00
2019-04-14T08:07:43.571Z,43840.00
2019-04-14T08:08:43.559Z,43104.00
2019-04-14T08:09:43.568Z,41792.00
2019-04-14T08:10:43.537Z,29984.00
2019-04-14T08:11:43.546Z,43968.00
2019-04-14T08:12:43.519Z,44320.00
2019-04-14T08:13:43.501Z,44512.00
2019-04-14T08:14:43.512Z,38432.00
2019-04-14T08:15:43.478Z,44096.00
2019-04-14T08:16:43.469Z,42304.00
2019-04-14T08:17:43.774Z,41920.00
2019-04-14T08:18:43.444Z,33248.00
2019-04-14T08:19:43.455Z,43712.00
2019-04-14T08:20:43.423Z,43840.00
2019-04-14T08:21:43.411Z,43648.00
2019-04-14T08:22:43.399Z,38464.00
2019-04-14T08:23:43.386Z,43744.00
2019-04-14T08:24:43.414Z,42272.00
2019-04-14T08:25:43.363Z,43712.00
2019-04-14T08:26:43.354Z,43168.00
2019-04-14T08:27:43.339Z,30048.00
2019-04-14T08:28:43.333Z,42912.00
2019-04-14T08:29:43.316Z,42784.00
2019-04-14T08:30:43.325Z,42496.00
2019-04-14T08:31:43.295Z,43360.00
2019-04-14T08:32:43.290Z,43360.00
2019-04-14T08:33:43.272Z,43200.00
2019-04-14T08:34:43.259Z,43456.00
2019-04-14T08:35:43.270Z,44960.00
2019-04-14T08:36:43.239Z,48768.00
2019-04-14T08:37:43.231Z,52608.00
2019-04-14T08:38:43.217Z,55936.00
2019-04-14T08:39:43.203Z,58304.00
2019-04-14T08:40:43.214Z,61344.00
2019-04-14T08:41:43.180Z,61536.00
2019-04-14T08:42:43.172Z,62688.00
2019-04-14T08:43:43.156Z,63616.00
2019-04-14T08:44:43.157Z,65696.00
2019-04-14T08:45:43.157Z,65920.00
2019-04-14T08:46:43.123Z,66272.00
2019-04-14T08:47:43.113Z,65184.00
2019-04-14T08:48:43.100Z,63552.00
2019-04-14T08:49:43.092Z,63680.00
2019-04-14T08:50:43.079Z,64224.00
2019-04-14T08:51:43.085Z,64640.00
2019-04-14T08:52:43.056Z,65440.00
2019-04-14T08:53:43.043Z,66976.00
2019-04-14T08:54:43.043Z,68416.00
2019-04-14T08:55:43.019Z,72000.00
2019-04-14T08:56:43.028Z,74624.00
2019-04-14T08:57:42.996Z,77344.00
2019-04-14T08:58:43.015Z,81024.00
2019-04-14T08:59:42.978Z,79072.00
2019-04-14T09:00:42.963Z,77760.00
2019-04-14T09:01:42.970Z,78304.00
2019-04-14T09:02:42.945Z,79840.00
2019-04-14T09:03:42.931Z,80256.00
2019-04-14T09:04:42.918Z,80384.00
2019-04-14T09:05:42.906Z,80800.00
2019-04-14T09:06:42.921Z,80736.00
2019-04-14T09:07:42.885Z,82112.00
2019-04-14T09:08:42.873Z,83776.00
2019-04-14T09:09:42.865Z,79360.00
2019-04-14T09:10:42.850Z,79456.00
2019-04-14T09:11:42.840Z,52480.00
2019-04-14T09:12:42.847Z,85056.00
2019-04-14T09:13:42.817Z,87264.00
2019-04-14T09:14:42.803Z,49184.00
2019-04-14T09:15:42.794Z,86912.00
2019-04-14T09:16:42.783Z,86080.00
2019-04-14T09:17:42.790Z,86624.00
2019-04-14T09:18:42.759Z,46240.00
2019-04-14T09:19:42.748Z,85472.00
2019-04-14T09:20:52.155Z,86240.00
2019-04-14T09:21:43.725Z,76256.00
2019-04-14T09:22:42.717Z,90720.00
2019-04-14T09:23:42.728Z,91584.00
2019-04-14T09:24:42.692Z,89888.00
2019-04-14T09:25:42.691Z,88928.00
2019-04-14T09:26:42.674Z,92384.00
2019-04-14T09:27:42.657Z,89920.00
2019-04-14T09:28:42.675Z,27200.00
2019-04-14T09:29:42.636Z,84768.00
2019-04-14T09:30:42.627Z,82432.00
2019-04-14T09:31:42.611Z,82016.00
2019-04-14T09:32:42.606Z,72064.00
2019-04-14T09:33:42.607Z,73024.00
2019-04-14T09:34:42.580Z,40672.00
2019-04-14T09:35:42.570Z,33696.00
2019-04-14T09:36:42.556Z,56288.00
2019-04-14T09:37:42.545Z,63520.00
2019-04-14T09:38:42.561Z,69760.00
2019-04-14T09:39:42.523Z,70496.00
2019-04-14T09:40:42.521Z,34016.00
2019-04-14T09:41:42.541Z,69280.00
2019-04-14T09:42:42.501Z,68032.00
2019-04-14T09:43:42.489Z,68800.00
2019-04-14T09:44:42.485Z,60448.00
2019-04-14T09:45:42.463Z,59552.00
2019-04-14T09:46:42.445Z,68928.00
2019-04-14T09:47:42.435Z,68288.00
2019-04-14T09:48:43.047Z,66720.00
2019-04-14T09:49:42.436Z,69600.00
2019-04-14T09:50:42.398Z,67968.00
2019-04-14T09:51:42.398Z,73472.00
2019-04-14T09:52:42.385Z,75584.00
2019-04-14T09:53:42.380Z,74144.00
2019-04-14T09:54:42.383Z,73664.00
2019-04-14T09:55:42.342Z,62528.00
2019-04-14T09:56:42.331Z,75712.00
2019-04-14T09:57:42.319Z,74240.00
2019-04-14T09:58:42.306Z,73504.00
2019-04-14T09:59:42.347Z,72928.00
2019-04-14T10:00:42.286Z,74464.00
2019-04-14T10:01:42.282Z,69440.00
2019-04-14T10:02:42.265Z,73792.00
2019-04-14T10:03:42.255Z,73376.00
2019-04-14T10:04:42.255Z,64416.00
2019-04-14T10:05:42.262Z,71072.00
2019-04-14T10:06:42.218Z,74432.00
2019-04-14T10:07:42.207Z,73824.00
2019-04-14T10:08:42.196Z,39424.00
2019-04-14T10:09:42.194Z,75776.00
2019-04-14T10:10:42.193Z,72000.00
2019-04-14T10:11:48.472Z,75904.00
2019-04-14T10:12:43.151Z,73984.00
2019-04-14T10:13:42.149Z,78688.00
2019-04-14T10:14:42.130Z,80832.00
2019-04-14T10:15:42.136Z,80576.00
2019-04-14T10:16:42.106Z,67520.00
2019-04-14T10:17:42.094Z,76896.00
2019-04-14T10:18:42.089Z,75712.00
2019-04-14T10:19:42.069Z,76256.00
2019-04-14T10:20:42.079Z,75456.00
2019-04-14T10:21:42.050Z,75296.00
2019-04-14T10:22:42.043Z,74144.00
2019-04-14T10:23:42.027Z,72896.00
2019-04-14T10:24:42.015Z,73344.00
2019-04-14T10:25:42.025Z,73152.00
2019-04-14T10:26:41.992Z,75904.00
2019-04-14T10:27:41.987Z,74784.00
2019-04-14T10:28:41.976Z,76288.00
2019-04-14T10:29:41.959Z,78080.00
2019-04-14T10:30:41.969Z,76480.00
2019-04-14T10:31:41.940Z,76480.00
2019-04-14T10:32:41.923Z,78976.00
2019-04-14T10:33:41.912Z,73856.00
2019-04-14T10:34:41.904Z,77632.00
2019-04-14T10:35:41.930Z,75040.00
2019-04-14T10:36:41.886Z,75616.00
2019-04-14T10:37:41.870Z,75584.00
2019-04-14T10:38:48.894Z,76576.00
2019-04-14T10:39:41.856Z,75328.00
2019-04-14T10:40:41.836Z,74848.00
2019-04-14T10:41:41.844Z,74272.00
2019-04-14T10:42:41.818Z,77088.00
2019-04-14T10:43:41.799Z,73216.00
2019-04-14T10:44:41.788Z,77760.00
2019-04-14T10:45:41.777Z,78144.00
2019-04-14T10:46:41.784Z,83200.00
2019-04-14T10:47:41.755Z,87360.00
2019-04-14T10:48:41.743Z,52256.00
2019-04-14T10:49:41.733Z,89184.00
2019-04-14T10:50:41.721Z,88704.00
2019-04-14T10:51:41.730Z,96096.00
2019-04-14T10:52:41.701Z,98624.00
2019-04-14T10:53:41.686Z,99552.00
2019-04-14T10:54:41.687Z,103968.00
2019-04-14T10:55:41.670Z,95840.00
2019-04-14T10:56:41.695Z,101856.00
2019-04-14T10:57:41.647Z,95680.00
2019-04-14T10:58:41.633Z,98464.00
2019-04-14T10:59:41.620Z,98816.00
2019-04-14T11:00:41.615Z,95456.00
2019-04-14T11:01:41.618Z,97024.00
2019-04-14T11:02:41.616Z,94016.00
2019-04-14T11:03:41.590Z,99904.00
2019-04-14T11:04:41.565Z,97408.00
2019-04-14T11:05:41.555Z,102496.00
2019-04-14T11:06:41.544Z,102528.00
2019-04-14T11:07:41.566Z,105536.00
2019-04-14T11:08:41.525Z,106944.00
2019-04-14T11:09:41.512Z,105088.00
2019-04-14T11:10:41.495Z,107648.00
2019-04-14T11:11:41.490Z,99520.00
2019-04-14T11:12:41.494Z,97408.00
2019-04-14T11:13:41.476Z,100928.00
2019-04-14T11:14:41.454Z,101056.00
2019-04-14T11:15:41.439Z,103552.00
2019-04-14T11:16:41.429Z,102176.00
2019-04-14T11:17:41.464Z,104800.00
2019-04-14T11:18:41.455Z,99744.00
2019-04-14T11:19:41.396Z,105824.00
2019-04-14T11:20:41.387Z,103040.00
2019-04-14T11:21:42.671Z,102080.00
2019-04-14T11:22:41.365Z,105440.00
2019-04-14T11:23:41.368Z,103968.00
2019-04-14T11:24:41.337Z,105760.00
2019-04-14T11:25:41.328Z,47968.00
2019-04-14T11:26:41.318Z,106816.00
2019-04-14T11:27:41.305Z,37536.00
2019-04-14T11:28:41.312Z,96960.00
2019-04-14T11:29:41.281Z,97888.00
2019-04-14T11:30:41.271Z,97376.00
2019-04-14T11:31:41.271Z,102432.00
2019-04-14T11:32:41.251Z,101824.00
2019-04-14T11:33:41.257Z,99872.00
2019-04-14T11:34:41.226Z,98560.00
2019-04-14T11:35:41.217Z,97056.00
2019-04-14T11:36:41.202Z,98720.00
2019-04-14T11:37:41.193Z,101472.00
2019-04-14T11:38:41.205Z,101440.00
2019-04-14T11:39:41.182Z,99680.00
2019-04-14T11:40:41.158Z,94592.00
2019-04-14T11:41:41.147Z,97024.00
2019-04-14T11:42:51.789Z,96736.00
2019-04-14T11:43:42.148Z,96512.00
2019-04-14T11:44:41.141Z,98112.00
2019-04-14T11:45:41.135Z,95744.00
2019-04-14T11:46:41.093Z,91712.00
2019-04-14T11:47:41.080Z,94528.00
2019-04-14T11:48:41.106Z,93280.00
2019-04-14T11:49:41.057Z,92288.00
2019-04-14T11:50:41.045Z,91040.00
2019-04-14T11:51:41.033Z,87584.00
2019-04-14T11:52:41.024Z,97184.00
2019-04-14T11:53:41.012Z,90336.00
2019-04-14T11:54:41.020Z,91264.00
2019-04-14T11:55:40.986Z,64832.00
2019-04-14T11:56:40.984Z,34560.00
2019-04-14T11:57:40.968Z,90816.00
2019-04-14T11:58:40.954Z,91776.00
2019-04-14T11:59:41.009Z,96224.00
2019-04-14T12:00:40.932Z,91744.00
2019-04-14T12:01:40.928Z,51584.00
2019-04-14T12:02:40.909Z,29376.00
2019-04-14T12:03:40.899Z,26656.00
2019-04-14T12:04:40.904Z,23904.00
2019-04-14T12:05:40.878Z,22176.00
2019-04-14T12:06:40.865Z,23712.00
2019-04-14T12:07:40.852Z,27360.00
2019-04-14T12:08:40.843Z,29632.00
2019-04-14T12:09:40.848Z,44928.00
2019-04-14T12:10:40.822Z,88928.00
2019-04-14T12:11:40.808Z,30368.00
2019-04-14T12:12:40.797Z,29600.00
2019-04-14T12:13:40.788Z,88096.00
2019-04-14T12:14:40.800Z,32224.00
2019-04-14T12:15:40.764Z,31520.00
2019-04-14T12:16:40.751Z,43136.00
2019-04-14T12:17:40.741Z,84576.00
2019-04-14T12:18:40.732Z,86944.00
2019-04-14T12:19:40.720Z,85888.00
2019-04-14T12:20:40.726Z,85952.00
2019-04-14T12:21:40.697Z,85472.00
2019-04-14T12:22:40.686Z,85248.00
2019-04-14T12:23:40.672Z,82976.00
2019-04-14T12:24:40.680Z,81888.00
2019-04-14T12:25:40.651Z,83776.00
2019-04-14T12:26:40.637Z,88640.00
2019-04-14T12:27:40.628Z,77920.00
2019-04-14T12:28:40.620Z,71840.00
2019-04-14T12:29:41.212Z,39520.00
2019-04-14T12:30:40.597Z,35872.00
2019-04-14T12:31:41.893Z,48256.00
2019-04-14T12:32:40.592Z,73728.00
2019-04-14T12:33:40.575Z,37056.00
2019-04-14T12:34:40.553Z,81120.00
2019-04-14T12:35:40.563Z,77248.00